createdAt,value
2019-03-26T00:00:56.511Z,83.57
2019-03-26T00:03:23.746Z,83.63
2019-03-26T00:05:51.049Z,83.92
2019-03-26T00:08:18.296Z,84.07
2019-03-26T00:10:45.505Z,84.50
2019-03-26T00:13:12.824Z,84.96
2019-03-26T00:15:40.064Z,84.46
2019-03-26T00:18:07.374Z,83.90
2019-03-26T00:20:34.702Z,83.58
2019-03-26T00:23:02.040Z,83.80
2019-03-26T00:25:29.414Z,83.49
2019-03-26T00:27:56.721Z,83.87
2019-03-26T00:30:24.095Z,84.05
2019-03-26T00:32:51.421Z,84.44
2019-03-26T00:35:18.751Z,84.48
2019-03-26T00:37:46.104Z,84.74
2019-03-26T00:40:13.535Z,84.59
2019-03-26T00:42:41.710Z,84.27
2019-03-26T00:45:09.046Z,83.74
2019-03-26T00:47:36.250Z,83.96
2019-03-26T00:50:04.321Z,83.61
2019-03-26T00:52:31.626Z,83.64
2019-03-26T00:54:58.969Z,83.30
2019-03-26T00:57:26.091Z,83.94
2019-03-26T00:59:53.504Z,83.89
2019-03-26T01:02:20.926Z,84.04
2019-03-26T01:04:48.202Z,84.22
2019-03-26T01:07:15.426Z,84.66
2019-03-26T01:09:42.754Z,84.63
2019-03-26T01:12:09.961Z,84.81
2019-03-26T01:14:37.291Z,84.62
2019-03-26T01:17:04.520Z,84.34
2019-03-26T01:19:31.848Z,84.18
2019-03-26T01:21:59.163Z,84.18
2019-03-26T01:24:26.513Z,83.86
2019-03-26T01:26:53.846Z,84.00
2019-03-26T01:29:21.179Z,84.20
2019-03-26T01:31:48.412Z,84.09
2019-03-26T01:34:15.755Z,83.95
2019-03-26T01:36:43.053Z,83.98
2019-03-26T01:39:10.400Z,84.21
2019-03-26T01:41:37.710Z,84.64
2019-03-26T01:44:05.036Z,84.29
2019-03-26T01:46:32.340Z,84.08
2019-03-26T01:48:59.656Z,83.58
2019-03-26T01:51:26.953Z,83.57
2019-03-26T01:53:54.203Z,83.40
2019-03-26T01:56:21.438Z,83.19
2019-03-26T01:58:48.751Z,83.19
2019-03-26T02:01:16.106Z,83.17
2019-03-26T02:03:43.332Z,83.56
2019-03-26T02:06:10.721Z,83.34
2019-03-26T02:08:38.258Z,83.34
2019-03-26T02:11:05.580Z,83.29
2019-03-26T02:13:32.923Z,83.14
2019-03-26T02:16:00.267Z,83.41
2019-03-26T02:18:27.580Z,83.52
2019-03-26T02:20:54.927Z,84.15
2019-03-26T02:23:22.292Z,83.25
2019-03-26T02:25:49.548Z,83.23
2019-03-26T02:28:16.873Z,83.23
2019-03-26T02:30:44.200Z,82.96
2019-03-26T02:33:11.527Z,82.30
2019-03-26T02:35:38.869Z,82.30
2019-03-26T02:38:06.614Z,82.02
2019-03-26T02:40:33.949Z,82.66
2019-03-26T02:43:01.178Z,82.17
2019-03-26T02:45:28.515Z,81.48
2019-03-26T02:47:55.844Z,81.31
2019-03-26T02:50:23.207Z,81.19
2019-03-26T02:52:51.774Z,81.19
2019-03-26T02:55:19.088Z,80.37
2019-03-26T02:57:46.456Z,80.72
2019-03-26T03:00:13.999Z,81.56
2019-03-26T03:02:41.361Z,81.54
2019-03-26T03:05:08.787Z,80.89
2019-03-26T03:07:36.090Z,80.89
2019-03-26T03:10:04.016Z,80.24
2019-03-26T03:12:33.230Z,80.24
2019-03-26T03:15:00.674Z,80.87
2019-03-26T03:17:28.009Z,80.45
2019-03-26T03:19:55.361Z,80.13
2019-03-26T03:22:23.197Z,80.39
2019-03-26T03:24:50.457Z,78.06
2019-03-26T03:27:17.815Z,78.06
2019-03-26T03:29:45.145Z,78.31
2019-03-26T03:32:12.469Z,78.31
2019-03-26T03:34:39.912Z,78.47
2019-03-26T03:37:07.236Z,77.36
2019-03-26T03:39:34.488Z,77.36
2019-03-26T03:42:01.811Z,74.58
2019-03-26T03:44:29.180Z,75.62
2019-03-26T03:46:57.221Z,75.62
2019-03-26T03:49:26.942Z,75.62
2019-03-26T03:51:56.887Z,75.61
2019-03-26T03:54:24.431Z,75.01
2019-03-26T03:56:53.580Z,74.54
2019-03-26T03:59:21.715Z,75.17
2019-03-26T04:01:48.949Z,75.39
2019-03-26T04:04:16.199Z,74.72
2019-03-26T04:06:43.532Z,74.72
2019-03-26T04:09:10.743Z,74.83
2019-03-26T04:11:38.123Z,74.85
2019-03-26T04:14:05.448Z,74.85
2019-03-26T04:16:32.791Z,75.03
2019-03-26T04:18:59.998Z,74.82
2019-03-26T04:21:27.335Z,74.41
2019-03-26T04:23:54.551Z,74.66
2019-03-26T04:26:21.793Z,74.71
2019-03-26T04:28:48.971Z,74.35
2019-03-26T04:31:16.193Z,74.23
2019-03-26T04:33:43.529Z,74.22
2019-03-26T04:36:24.707Z,73.66
2019-03-26T04:38:39.871Z,74.28
2019-03-26T04:41:07.202Z,73.75
2019-03-26T04:43:34.521Z,74.63
2019-03-26T04:46:01.867Z,75.20
2019-03-26T04:48:29.081Z,73.83
2019-03-26T04:50:56.370Z,73.68
2019-03-26T04:53:23.588Z,74.50
2019-03-26T04:55:50.980Z,75.33
2019-03-26T04:58:18.205Z,75.06
2019-03-26T05:00:45.455Z,75.29
2019-03-26T05:03:12.776Z,75.91
2019-03-26T05:05:40.108Z,75.88
2019-03-26T05:08:07.434Z,75.87
2019-03-26T05:10:34.652Z,76.22
2019-03-26T05:13:01.998Z,76.47
2019-03-26T05:15:29.311Z,76.14
2019-03-26T05:17:56.989Z,74.64
2019-03-26T05:20:24.360Z,75.59
2019-03-26T05:22:51.605Z,75.27
2019-03-26T05:25:19.046Z,74.13
2019-03-26T05:27:46.283Z,74.65
2019-03-26T05:30:15.403Z,73.51
2019-03-26T05:32:42.735Z,72.93
2019-03-26T05:35:09.952Z,72.48
2019-03-26T05:37:37.371Z,72.41
2019-03-26T05:40:06.732Z,72.63
2019-03-26T05:42:33.964Z,72.84
2019-03-26T05:45:01.292Z,72.86
2019-03-26T05:47:28.509Z,72.42
2019-03-26T05:49:55.723Z,73.11
2019-03-26T05:52:23.057Z,73.03
2019-03-26T05:54:50.272Z,72.59
2019-03-26T05:57:17.616Z,72.35
2019-03-26T05:59:44.836Z,72.35
2019-03-26T06:02:15.202Z,72.26
2019-03-26T06:04:41.173Z,72.35
2019-03-26T06:07:08.508Z,72.80
2019-03-26T06:09:35.811Z,72.57
2019-03-26T06:12:03.164Z,73.09
2019-03-26T06:14:30.483Z,73.04
2019-03-26T06:16:57.699Z,73.29
2019-03-26T06:19:25.038Z,73.36
2019-03-26T06:21:52.267Z,73.15
2019-03-26T06:24:19.661Z,73.13
2019-03-26T06:26:46.900Z,73.74
2019-03-26T06:29:14.243Z,73.82
2019-03-26T06:31:41.472Z,73.80
2019-03-26T06:34:10.510Z,73.50
2019-03-26T06:36:37.934Z,73.57
2019-03-26T06:39:07.026Z,73.22
2019-03-26T06:41:34.323Z,73.22
2019-03-26T06:44:01.646Z,72.05
2019-03-26T06:46:28.946Z,71.47
2019-03-26T06:48:56.187Z,71.81
2019-03-26T06:51:23.501Z,71.23
2019-03-26T06:53:50.899Z,71.43
2019-03-26T06:56:18.106Z,70.92
2019-03-26T06:58:45.341Z,71.17
2019-03-26T07:01:12.675Z,70.32
2019-03-26T07:03:40.015Z,70.01
2019-03-26T07:06:07.331Z,69.84
2019-03-26T07:08:35.071Z,69.03
2019-03-26T07:11:02.380Z,68.83
2019-03-26T07:13:29.618Z,67.98
2019-03-26T07:15:56.847Z,66.90
2019-03-26T07:18:24.166Z,66.77
2019-03-26T07:20:51.524Z,66.27
2019-03-26T07:23:18.868Z,67.53
2019-03-26T07:25:46.186Z,67.25
2019-03-26T07:28:13.515Z,66.05
2019-03-26T07:30:43.612Z,65.61
2019-03-26T07:33:11.004Z,65.78
2019-03-26T07:35:38.361Z,67.74
2019-03-26T07:38:05.688Z,66.08
2019-03-26T07:40:33.026Z,65.08
2019-03-26T07:43:00.343Z,65.35
2019-03-26T07:45:27.672Z,65.71
2019-03-26T07:47:55.044Z,67.25
2019-03-26T07:50:22.372Z,70.85
2019-03-26T07:52:49.717Z,73.20
2019-03-26T07:55:17.045Z,74.50
2019-03-26T07:57:44.259Z,73.87
2019-03-26T08:00:12.033Z,71.01
2019-03-26T08:02:39.418Z,69.27
2019-03-26T08:05:07.813Z,71.00
2019-03-26T08:07:35.127Z,71.46
2019-03-26T08:10:02.479Z,71.99
2019-03-26T08:12:32.615Z,71.30
2019-03-26T08:14:58.874Z,71.71
2019-03-26T08:17:26.190Z,70.82
2019-03-26T08:19:53.524Z,69.02
2019-03-26T08:22:20.740Z,69.44
2019-03-26T08:24:48.057Z,70.68
2019-03-26T08:27:15.395Z,71.75
2019-03-26T08:29:42.616Z,72.81
2019-03-26T08:32:10.038Z,72.44
2019-03-26T08:34:37.361Z,72.51
2019-03-26T08:37:04.697Z,72.48
2019-03-26T08:39:32.000Z,72.25
2019-03-26T08:41:59.331Z,70.75
2019-03-26T08:44:26.529Z,70.09
2019-03-26T08:46:53.755Z,70.29
2019-03-26T08:49:21.127Z,67.38
2019-03-26T08:51:48.343Z,64.96
2019-03-26T08:54:15.588Z,62.75
2019-03-26T08:56:42.920Z,62.11
2019-03-26T08:59:10.264Z,60.98
2019-03-26T09:01:37.485Z,58.94
2019-03-26T09:04:04.693Z,58.39
2019-03-26T09:06:32.020Z,57.71
2019-03-26T09:08:59.326Z,59.14
2019-03-26T09:11:26.647Z,54.94
2019-03-26T09:13:53.851Z,51.62
2019-03-26T09:16:21.272Z,51.26
2019-03-26T09:18:48.464Z,56.02
2019-03-26T09:21:15.815Z,59.19
2019-03-26T09:23:43.121Z,59.59
2019-03-26T09:26:10.346Z,59.71
2019-03-26T09:28:37.575Z,60.54
2019-03-26T09:31:04.934Z,60.09
2019-03-26T09:33:32.276Z,61.21
2019-03-26T09:35:59.687Z,63.64
2019-03-26T09:38:38.414Z,63.75
2019-03-26T09:40:56.166Z,64.96
2019-03-26T09:43:23.379Z,65.39
2019-03-26T09:45:50.751Z,65.96
2019-03-26T09:48:18.109Z,66.73
2019-03-26T09:50:45.508Z,65.65
2019-03-26T09:53:13.007Z,65.09
2019-03-26T09:55:40.383Z,64.64
2019-03-26T09:58:07.712Z,61.61
2019-03-26T10:00:35.122Z,58.24
2019-03-26T10:03:02.493Z,58.80
2019-03-26T10:05:29.793Z,60.47
2019-03-26T10:07:57.112Z,63.37
2019-03-26T10:10:24.423Z,64.63
2019-03-26T10:12:51.757Z,64.08
2019-03-26T10:15:19.055Z,64.52
2019-03-26T10:17:46.396Z,65.12
2019-03-26T10:20:13.982Z,65.77
2019-03-26T10:22:41.328Z,66.58
2019-03-26T10:25:10.907Z,66.55
2019-03-26T10:27:38.287Z,65.85
2019-03-26T10:30:06.750Z,65.15
2019-03-26T10:32:34.505Z,64.11
2019-03-26T10:35:01.816Z,65.67
2019-03-26T10:37:29.143Z,67.07
2019-03-26T10:39:56.444Z,65.80
2019-03-26T10:42:23.779Z,65.95
2019-03-26T10:44:51.025Z,65.14
2019-03-26T10:47:18.358Z,64.27
2019-03-26T10:49:45.573Z,64.27
2019-03-26T10:52:12.904Z,64.17
2019-03-26T10:54:40.127Z,63.26
2019-03-26T10:57:07.447Z,64.53
2019-03-26T10:59:34.745Z,64.00
2019-03-26T11:02:02.119Z,63.55
2019-03-26T11:04:29.389Z,65.38
2019-03-26T11:06:56.847Z,65.19
2019-03-26T11:09:27.074Z,65.26
2019-03-26T11:11:53.274Z,65.18
2019-03-26T11:14:20.582Z,65.69
2019-03-26T11:16:47.927Z,65.95
2019-03-26T11:19:15.117Z,65.89
2019-03-26T11:21:42.479Z,65.65
2019-03-26T11:24:09.790Z,65.14
2019-03-26T11:26:37.087Z,65.15
2019-03-26T11:29:04.414Z,65.17
2019-03-26T11:31:31.725Z,64.39
2019-03-26T11:33:59.096Z,64.68
2019-03-26T11:36:26.404Z,64.96
2019-03-26T11:38:53.734Z,65.53
2019-03-26T11:41:21.139Z,65.26
2019-03-26T11:43:48.466Z,65.52
2019-03-26T11:46:15.819Z,65.14
2019-03-26T11:48:43.143Z,64.55
2019-03-26T11:51:10.449Z,64.59
2019-03-26T11:53:37.786Z,65.28
2019-03-26T11:56:05.086Z,66.47
2019-03-26T11:58:32.416Z,66.74
2019-03-26T12:00:59.840Z,67.69
2019-03-26T12:03:27.179Z,67.65
2019-03-26T12:05:54.485Z,68.43
2019-03-26T12:08:21.810Z,68.47
2019-03-26T12:10:49.119Z,68.92
2019-03-26T12:13:16.357Z,69.20
2019-03-26T12:15:43.656Z,68.85
2019-03-26T12:18:10.996Z,69.80
2019-03-26T12:20:38.321Z,70.55
2019-03-26T12:23:05.647Z,71.01
2019-03-26T12:25:33.089Z,71.29
2019-03-26T12:28:00.478Z,71.78
2019-03-26T12:30:32.359Z,72.59
2019-03-26T12:32:59.907Z,72.30
2019-03-26T12:35:28.102Z,71.92
2019-03-26T12:37:55.457Z,72.16
2019-03-26T12:40:22.796Z,72.36
2019-03-26T12:42:50.006Z,73.02
2019-03-26T12:45:17.339Z,73.12
2019-03-26T12:47:44.649Z,73.70
2019-03-26T12:50:12.111Z,73.47
2019-03-26T12:52:39.428Z,73.89
2019-03-26T12:55:06.870Z,73.87
2019-03-26T12:57:34.228Z,73.58
2019-03-26T13:00:01.557Z,73.97
2019-03-26T13:02:28.854Z,73.31
2019-03-26T13:04:56.251Z,73.26
2019-03-26T13:07:23.549Z,73.14
2019-03-26T13:09:50.879Z,72.94
2019-03-26T13:12:18.083Z,72.77
2019-03-26T13:14:45.720Z,73.17
2019-03-26T13:17:13.191Z,73.39
2019-03-26T13:19:40.441Z,73.21
2019-03-26T13:22:07.753Z,75.50
2019-03-26T13:24:35.076Z,77.12
2019-03-26T13:27:22.009Z,77.60
2019-03-26T13:29:49.218Z,78.88
2019-03-26T13:32:16.415Z,79.85
2019-03-26T13:34:43.678Z,79.85
2019-03-26T13:37:10.981Z,79.68
2019-03-26T13:39:38.503Z,79.24
2019-03-26T13:42:05.809Z,79.82
2019-03-26T13:44:33.193Z,79.01
2019-03-26T13:47:00.486Z,79.66
2019-03-26T13:49:27.698Z,79.46
2019-03-26T13:51:55.001Z,80.00
2019-03-26T13:54:22.339Z,81.46
2019-03-26T13:56:49.548Z,81.24
2019-03-26T13:59:16.851Z,82.27
2019-03-26T14:01:44.215Z,82.82
2019-03-26T14:04:11.545Z,83.22
2019-03-26T14:12:06.647Z,82.94
2019-03-26T14:14:33.976Z,83.79
2019-03-26T14:17:01.210Z,83.06
2019-03-26T14:19:28.534Z,83.20
2019-03-26T14:21:55.845Z,82.64
2019-03-26T14:24:23.170Z,82.35
2019-03-26T14:26:51.047Z,82.11
2019-03-26T14:29:19.621Z,82.16
2019-03-26T14:31:52.980Z,81.50
2019-03-26T14:34:20.458Z,80.69
2019-03-26T14:36:47.912Z,79.74
2019-03-26T14:39:15.730Z,79.81
2019-03-26T14:41:43.077Z,79.87
2019-03-26T14:44:10.395Z,79.38
2019-03-26T14:46:37.799Z,79.89
2019-03-26T14:49:05.108Z,78.89
2019-03-26T14:51:34.399Z,79.04
2019-03-26T14:54:02.385Z,78.57
2019-03-26T14:56:30.587Z,77.96
2019-03-26T14:58:57.822Z,78.17
2019-03-26T15:01:25.164Z,78.04
2019-03-26T15:03:52.481Z,77.88
2019-03-26T15:06:19.905Z,77.70
2019-03-26T15:08:47.216Z,78.04
2019-03-26T15:11:14.495Z,77.47
2019-03-26T15:13:41.739Z,77.17
2019-03-26T15:16:09.083Z,77.17
2019-03-26T15:18:36.308Z,76.15
2019-03-26T15:21:03.771Z,75.62
2019-03-26T15:23:31.085Z,76.10
2019-03-26T15:25:58.423Z,76.00
2019-03-26T15:28:25.770Z,76.07
2019-03-26T15:30:53.438Z,76.18
2019-03-26T15:33:20.772Z,77.09
2019-03-26T15:35:48.098Z,75.84
2019-03-26T15:38:15.359Z,76.70
2019-03-26T15:40:45.884Z,76.38
2019-03-26T15:43:13.259Z,76.63
2019-03-26T15:45:40.581Z,76.65
2019-03-26T15:48:07.968Z,77.26
2019-03-26T15:50:40.158Z,77.71
2019-03-26T15:53:07.824Z,77.41
2019-03-26T15:55:35.265Z,77.18
2019-03-26T15:58:02.587Z,76.70
2019-03-26T16:00:31.200Z,76.79
2019-03-26T16:02:58.843Z,77.81
2019-03-26T16:05:28.859Z,77.96
2019-03-26T16:08:27.628Z,78.20
2019-03-26T16:10:59.144Z,78.92
2019-03-26T16:13:26.494Z,79.42
2019-03-26T16:15:56.469Z,78.87
2019-03-26T16:18:26.637Z,79.14
2019-03-26T16:20:59.057Z,79.92
2019-03-26T16:23:28.141Z,79.46
2019-03-26T16:25:55.510Z,79.06
2019-03-26T16:28:31.954Z,79.35
2019-03-26T16:30:59.652Z,78.39
2019-03-26T16:33:31.500Z,78.57
2019-03-26T16:36:36.093Z,78.09
2019-03-26T16:39:12.810Z,77.64
2019-03-26T16:41:51.711Z,78.16
2019-03-26T16:44:28.337Z,78.41
2019-03-26T16:46:55.676Z,79.00
2019-03-26T16:49:23.534Z,78.95
2019-03-26T16:52:01.838Z,79.29
2019-03-26T16:54:31.174Z,78.96
2019-03-26T16:57:07.820Z,79.07
2019-03-26T16:59:40.916Z,78.67
2019-03-26T17:02:10.664Z,78.17
2019-03-26T17:04:38.002Z,78.37
2019-03-26T17:07:05.372Z,79.00
2019-03-26T17:09:44.559Z,78.80
2019-03-26T17:12:13.649Z,79.80
2019-03-26T17:14:43.879Z,79.70
2019-03-26T17:17:11.189Z,79.44
2019-03-26T17:19:38.536Z,79.33
2019-03-26T17:22:06.973Z,79.05
2019-03-26T17:24:34.407Z,78.91
2019-03-26T17:27:01.898Z,78.78
2019-03-26T17:29:29.259Z,79.18
2019-03-26T17:31:56.608Z,79.80
2019-03-26T17:34:26.835Z,81.03
2019-03-26T17:36:54.178Z,82.31
2019-03-26T17:42:17.083Z,83.32
2019-03-26T17:44:37.499Z,83.69
2019-03-26T17:47:04.729Z,83.74
2019-03-26T17:49:32.058Z,83.95
2019-03-26T17:51:59.389Z,84.68
2019-03-26T17:54:26.722Z,85.12
2019-03-26T17:56:54.047Z,85.16
2019-03-26T17:59:21.757Z,85.56
2019-03-26T18:01:48.975Z,84.92
2019-03-26T18:04:16.320Z,84.85
2019-03-26T18:06:43.636Z,84.79
2019-03-26T18:09:10.949Z,84.96
2019-03-26T18:11:38.279Z,84.89
2019-03-26T18:14:05.507Z,84.35
2019-03-26T18:16:33.187Z,84.14
2019-03-26T18:19:00.395Z,84.03
2019-03-26T18:21:27.731Z,84.32
2019-03-26T18:23:55.289Z,84.18
2019-03-26T18:26:22.513Z,84.38
2019-03-26T18:28:49.811Z,84.74
2019-03-26T18:31:17.137Z,84.68
2019-03-26T18:33:44.694Z,84.31
2019-03-26T18:36:11.919Z,84.31
2019-03-26T18:38:39.126Z,83.98
2019-03-26T18:41:06.421Z,83.55
2019-03-26T18:43:33.663Z,83.41
2019-03-26T18:46:00.961Z,83.58
2019-03-26T18:48:28.184Z,83.73
2019-03-26T18:50:55.526Z,83.51
2019-03-26T18:53:22.788Z,83.61
2019-03-26T18:55:50.004Z,83.49
2019-03-26T18:58:17.337Z,83.88
2019-03-26T19:00:44.641Z,83.83
2019-03-26T19:03:14.282Z,83.68
2019-03-26T19:05:41.490Z,83.88
2019-03-26T19:08:08.917Z,83.95
2019-03-26T19:10:36.259Z,84.19
2019-03-26T19:13:03.916Z,84.20
2019-03-26T19:15:31.229Z,84.33
2019-03-26T19:17:58.556Z,84.40
2019-03-26T19:20:25.873Z,84.88
2019-03-26T19:22:53.105Z,84.94
2019-03-26T19:25:20.415Z,84.95
2019-03-26T19:27:47.738Z,84.59
2019-03-26T19:30:15.103Z,84.61
2019-03-26T19:32:42.323Z,84.44
2019-03-26T19:35:09.621Z,84.44
2019-03-26T19:37:36.947Z,84.34
2019-03-26T19:40:04.480Z,84.15
2019-03-26T19:42:31.803Z,84.30
2019-03-26T19:44:59.032Z,84.73
2019-03-26T19:47:26.363Z,85.07
2019-03-26T19:49:53.678Z,85.16
2019-03-26T19:52:20.902Z,85.54
2019-03-26T19:54:48.040Z,85.70
2019-03-26T19:57:17.121Z,85.46
2019-03-26T19:59:44.319Z,85.13
2019-03-26T20:02:11.646Z,84.84
2019-03-26T20:04:38.874Z,84.49
2019-03-26T20:07:06.192Z,83.71
2019-03-26T20:09:33.419Z,83.79
2019-03-26T20:12:00.630Z,84.30
2019-03-26T20:17:23.678Z,83.05
2019-03-26T20:19:53.504Z,82.87
2019-03-26T20:22:20.840Z,82.83
2019-03-26T20:24:48.853Z,83.05
2019-03-26T20:27:16.192Z,83.57
2019-03-26T20:29:43.504Z,83.44
2019-03-26T20:32:10.721Z,83.62
2019-03-26T20:34:38.054Z,83.75
2019-03-26T20:37:05.366Z,83.94
2019-03-26T20:39:32.699Z,84.03
2019-03-26T20:42:02.447Z,84.09
2019-03-26T20:44:30.230Z,83.98
2019-03-26T20:46:57.530Z,84.00
2019-03-26T20:49:26.887Z,84.03
2019-03-26T20:51:54.179Z,84.07
2019-03-26T20:54:21.441Z,84.12
2019-03-26T20:56:48.750Z,83.81
2019-03-26T20:59:16.469Z,83.87
2019-03-26T21:01:45.564Z,83.28
2019-03-26T21:04:12.810Z,83.05
2019-03-26T21:06:40.026Z,83.44
2019-03-26T21:09:07.910Z,83.88
2019-03-26T21:11:35.115Z,82.93
2019-03-26T21:14:04.603Z,82.39
2019-03-26T21:16:31.823Z,82.72
2019-03-26T21:19:00.217Z,82.85
2019-03-26T21:21:27.551Z,82.63
2019-03-26T21:23:54.882Z,82.54
2019-03-26T21:26:22.187Z,82.35
2019-03-26T21:28:49.792Z,83.12
2019-03-26T21:31:17.000Z,82.35
2019-03-26T21:33:44.323Z,80.93
2019-03-26T21:36:11.692Z,81.60
2019-03-26T21:38:38.995Z,82.51
2019-03-26T21:41:06.288Z,82.84
2019-03-26T21:43:33.622Z,81.94
2019-03-26T21:46:00.922Z,81.55
2019-03-26T21:48:28.266Z,82.12
2019-03-26T21:50:55.623Z,82.71
2019-03-26T21:53:22.846Z,82.67
2019-03-26T21:55:50.182Z,82.70
2019-03-26T21:58:17.499Z,83.45
2019-03-26T22:00:44.852Z,83.24
2019-03-26T22:03:12.152Z,83.99
2019-03-26T22:05:39.488Z,83.79
2019-03-26T22:08:06.796Z,84.14
2019-03-26T22:10:34.459Z,84.15
2019-03-26T22:13:01.789Z,84.48
2019-03-26T22:15:29.123Z,84.90
2019-03-26T22:17:56.350Z,85.31
2019-03-26T22:20:23.699Z,85.21
2019-03-26T22:22:51.024Z,84.75
2019-03-26T22:25:18.340Z,84.95
2019-03-26T22:27:45.662Z,85.08
2019-03-26T22:30:13.591Z,85.40
2019-03-26T22:32:40.912Z,85.51
2019-03-26T22:35:09.263Z,85.26
2019-03-26T22:37:36.609Z,85.39
2019-03-26T22:40:04.847Z,85.64
2019-03-26T22:42:32.152Z,85.62
2019-03-26T22:44:59.500Z,85.59
2019-03-26T22:47:26.803Z,85.38
2019-03-26T22:49:57.206Z,85.44
2019-03-26T22:52:23.330Z,85.64
2019-03-26T22:54:50.679Z,85.87
2019-03-26T22:57:18.002Z,85.87
2019-03-26T22:59:45.233Z,85.66
2019-03-26T23:02:12.560Z,85.71
2019-03-26T23:04:39.897Z,86.00
2019-03-26T23:07:07.230Z,86.22
2019-03-26T23:09:34.538Z,86.41
2019-03-26T23:12:02.806Z,86.39
2019-03-26T23:14:30.111Z,86.47
2019-03-26T23:16:57.437Z,86.51
2019-03-26T23:19:24.743Z,86.54
2019-03-26T23:21:53.543Z,86.48
2019-03-26T23:24:20.777Z,86.65
2019-03-26T23:26:47.992Z,86.87
2019-03-26T23:29:15.342Z,86.85
2019-03-26T23:31:42.664Z,86.74
2019-03-26T23:34:09.914Z,86.80
2019-03-26T23:36:37.222Z,86.45
2019-03-26T23:39:05.644Z,86.87
2019-03-26T23:41:32.979Z,86.87
2019-03-26T23:44:00.303Z,86.89
2019-03-26T23:46:27.636Z,86.47
2019-03-26T23:48:54.845Z,86.61
2019-03-26T23:51:22.080Z,87.01
2019-03-26T23:53:49.401Z,86.78
2019-03-26T23:56:16.743Z,87.07
2019-03-26T23:58:43.957Z,87.07
